To NAV CANADA Home Page Login to a new session Search on AWWS site Disclaimer Vers la page française équivalente Tips FAQ What's new on the site To the Forecasts and Observations / NOTAM section To "File a Flight Plan" website Publications and other links Update of the User's profile FIC Telephone Numbers My Weather Data Folder Route Weather Data Regional Weather Data Local Weather Data To the Forecasts and Observations / NOTAM section
Request Generated 11/13/2018 at 18:04:56 UTC . Weather information available at that time is displayed.

METAR/TAF

TRENTON/ON    

METAR CYTR 131800Z 32010G15KT 15SM -SHSN BKN014 OVC052 01/M02 A3004 RMK SF7SC1 PCPN VRY LGT SLP177=
SPECI CYTR 131745Z 31011KT 15SM -SHSN BKN014 OVC052 01/M01 A3004 RMK SF7SC1 SLP176=
SPECI CYTR 131712Z 32009KT 15SM BKN010 OVC048 02/M00 A3003 RMK SF7SC1 SLP174=
METAR CYTR 131700Z 31010G15KT 15SM BKN009 OVC048 02/00 A3003 RMK SF7SC1 SLP174=
SPECI CYTR 131627Z 31010KT 7SM BKN007 OVC050 03/01 A3004 RMK SF7SC1 SLP177=
METAR CYTR 131600Z 30005KT 6SM BR OVC005 03/02 A3004 RMK SF8 VIS VRB 4-8 SLP177=

TAF CYTR 131733Z 1318/1418 32010KT P6SM SCT010 OVC030 TEMPO 1318/1319
3SM -SHRASN BR BKN010 OVC030
FM131900 33012G22KT P6SM BKN025 TEMPO 1319/1322 4SM -SHRASN BR
BKN015 OVC025
FM132200 33010G20KT P6SM SCT030
BECMG 1322/1324 31008KT
FM140400 30010KT P6SM FEW015 BKN025 TEMPO 1405/1408 3SM -SHSN
BKN015 OVC025
BECMG 1412/1414 32010G20KT BKN040
FM141600 32012G22KT P6SM SCT040
RMK NXT FCST BY 140000Z=
Your time UTC time
Weather data provided by Environment Canada and NAV CANADA